Time;durP1;ratioP1;P1;durP2;ratioP2;P2;SDS_P1;SDS_P2;PMS_P1;PMS_P2;Temp;Humidity;BMP_temperature;BMP_pressure;BME280_temperature;BME280_humidity;BME280_pressure;Samples;Min_cycle;Max_cycle;Signal;HPM_P1;HPM_P2
2023/07/01 00:01:49;;;;;;;17.15;4.28;;;17.30;99.90;;;;;;5050884;28;20192;-69
2023/07/01 00:04:15;;;;;;;18.50;3.88;;;17.30;99.90;;;;;;5050892;28;20172;-68
2023/07/01 00:06:43;;;;;;;15.38;4.00;;;17.30;99.90;;;;;;5031114;28;20655;-68
2023/07/01 00:09:10;;;;;;;20.55;4.80;;;17.30;99.90;;;;;;5013449;28;20185;-68
2023/07/01 00:11:36;;;;;;;16.17;3.85;;;17.30;99.90;;;;;;5031117;28;20255;-68
2023/07/01 00:14:02;;;;;;;17.13;4.50;;;17.20;99.90;;;;;;5031152;28;20174;-69
2023/07/01 00:16:28;;;;;;;18.92;4.55;;;17.30;99.90;;;;;;5031455;28;20701;-69
2023/07/01 00:18:53;;;;;;;16.60;4.60;;;17.30;99.90;;;;;;5050926;28;20583;-69
2023/07/01 00:21:19;;;;;;;17.70;4.00;;;17.30;99.90;;;;;;5050967;28;20260;-68
2023/07/01 00:23:45;;;;;;;18.48;4.25;;;17.30;99.90;;;;;;5050825;28;20647;-70
2023/07/01 00:26:10;;;;;;;12.82;3.58;;;17.20;99.90;;;;;;5050801;28;20176;-70
2023/07/01 00:28:36;;;;;;;11.88;3.85;;;17.20;99.90;;;;;;5050870;28;20177;-70
2023/07/01 00:31:02;;;;;;;17.48;4.00;;;17.20;99.90;;;;;;5050568;28;20217;-70
2023/07/01 00:33:27;;;;;;;17.27;4.70;;;17.10;99.90;;;;;;5050893;28;20557;-70
2023/07/01 00:35:53;;;;;;;15.48;3.90;;;17.20;99.90;;;;;;5050867;28;20256;-69
2023/07/01 00:38:19;;;;;;;17.13;4.25;;;;;;;;;;5051044;28;20169;-68
2023/07/01 00:40:45;;;;;;;16.67;4.18;;;17.20;99.90;;;;;;5039377;28;20735;-69
2023/07/01 00:43:10;;;;;;;16.35;4.40;;;17.10;99.90;;;;;;5048310;28;20195;-68
2023/07/01 00:45:36;;;;;;;17.65;4.20;;;17.20;99.90;;;;;;5046508;28;20543;-68
2023/07/01 00:48:02;;;;;;;16.98;4.30;;;17.10;99.90;;;;;;5030831;28;20539;-68
2023/07/01 00:50:27;;;;;;;14.65;3.92;;;17.20;99.90;;;;;;5030646;28;20688;-68
2023/07/01 00:52:53;;;;;;;21.10;4.00;;;17.20;99.90;;;;;;5030672;28;20196;-68
2023/07/01 00:55:19;;;;;;;13.52;4.35;;;17.20;99.90;;;;;;5050083;28;20178;-68
2023/07/01 00:57:45;;;;;;;20.13;4.65;;;17.20;99.90;;;;;;5050526;28;20215;-68
2023/07/01 01:00:12;;;;;;;15.85;3.83;;;17.20;99.90;;;;;;5050380;28;20268;-68
2023/07/01 01:03:15;;;;;;;15.82;4.07;;;17.20;99.90;;;;;;5049828;28;20185;-68
2023/07/01 01:05:48;;;;;;;19.33;3.67;;;17.20;99.90;;;;;;5026243;28;20181;-68
2023/07/01 01:08:37;;;;;;;16.98;4.10;;;17.20;99.90;;;;;;5050112;28;20181;-68
2023/07/01 01:11:05;;;;;;;15.55;4.43;;;17.20;99.90;;;;;;5049968;28;20223;-68
2023/07/01 01:13:32;;;;;;;17.15;4.22;;;17.20;99.90;;;;;;5050359;28;20201;-68
2023/07/01 01:15:58;;;;;;;20.35;4.95;;;17.20;99.90;;;;;;5050358;28;20177;-68
2023/07/01 01:18:28;;;;;;;18.20;4.65;;;17.20;99.90;;;;;;5050364;28;20632;-68
2023/07/01 01:20:55;;;;;;;18.17;4.85;;;17.20;99.90;;;;;;5050424;28;20332;-67
2023/07/01 01:23:32;;;;;;;15.85;5.13;;;17.20;99.90;;;;;;5050207;28;20201;-67
2023/07/01 01:26:06;;;;;;;17.40;4.65;;;17.20;99.90;;;;;;5033207;28;20646;-67
2023/07/01 01:28:36;;;;;;;17.58;4.80;;;17.10;99.90;;;;;;5050417;28;20253;-67
2023/07/01 01:31:02;;;;;;;20.05;5.55;;;17.10;99.90;;;;;;5050060;28;20703;-66
2023/07/01 01:33:27;;;;;;;14.57;4.38;;;17.10;99.90;;;;;;5050205;28;20161;-66
2023/07/01 01:36:00;;;;;;;13.15;5.00;;;17.10;99.90;;;;;;5050121;28;20335;-67
2023/07/01 01:38:31;;;;;;;16.48;4.85;;;17.10;99.90;;;;;;5050186;28;20169;-67
2023/07/01 01:41:19;;;;;;;19.17;5.45;;;17.00;99.90;;;;;;5050487;28;20161;-66
2023/07/01 01:44:04;;;;;;;11.75;4.38;;;17.10;99.90;;;;;;5052774;28;20280;-67
2023/07/01 01:46:30;;;;;;;18.00;5.18;;;17.10;99.90;;;;;;5051955;28;20264;-69
2023/07/01 01:48:59;;;;;;;13.68;4.72;;;17.10;99.90;;;;;;5054370;28;20190;-68
2023/07/01 01:51:25;;;;;;;11.93;4.55;;;17.10;99.90;;;;;;5053819;28;20201;-68
2023/07/01 01:53:52;;;;;;;18.85;5.13;;;17.10;99.90;;;;;;5053511;28;20176;-69
2023/07/01 01:56:19;;;;;;;13.65;4.55;;;17.10;99.90;;;;;;5053552;28;20263;-69
2023/07/01 01:58:47;;;;;;;14.73;5.50;;;17.10;99.90;;;;;;5053654;28;20166;-69
2023/07/01 02:01:13;;;;;;;11.85;3.50;;;17.10;99.90;;;;;;5053368;28;20173;-69
2023/07/01 02:03:38;;;;;;;13.45;3.42;;;17.00;99.90;;;;;;5053063;28;20179;-68
2023/07/01 02:06:04;;;;;;;9.10;3.10;;;17.00;99.90;;;;;;5053423;28;20271;-68
2023/07/01 02:08:30;;;;;;;10.00;2.55;;;16.90;99.90;;;;;;5053337;28;20543;-69
2023/07/01 02:10:55;;;;;;;10.38;3.00;;;16.90;99.90;;;;;;5053308;28;20213;-69
2023/07/01 02:13:21;;;;;;;6.35;2.00;;;16.90;99.90;;;;;;5053389;28;20174;-68
2023/07/01 02:15:47;;;;;;;9.98;2.45;;;16.90;99.90;;;;;;5053386;28;20181;-69
2023/07/01 02:18:12;;;;;;;6.32;2.30;;;16.90;99.90;;;;;;5053197;28;20173;-69
2023/07/01 02:20:38;;;;;;;9.88;2.60;;;16.90;99.90;;;;;;5053107;28;20737;-70
2023/07/01 02:23:03;;;;;;;9.43;2.70;;;16.90;99.90;;;;;;5053182;28;20223;-70
2023/07/01 02:25:29;;;;;;;7.78;2.85;;;16.90;99.90;;;;;;5051213;28;20648;-70
2023/07/01 02:27:55;;;;;;;12.38;3.40;;;16.90;99.90;;;;;;5032935;28;20253;-71
2023/07/01 02:30:20;;;;;;;12.00;3.05;;;16.90;99.90;;;;;;5032814;28;20217;-70
2023/07/01 02:32:46;;;;;;;11.75;3.80;;;16.90;99.90;;;;;;5032952;28;20174;-70
2023/07/01 02:35:11;;;;;;;12.32;4.00;;;16.90;99.90;;;;;;5033174;28;20166;-67
2023/07/01 02:37:37;;;;;;;7.97;3.50;;;16.90;99.90;;;;;;5033133;28;20192;-68
2023/07/01 02:40:04;;;;;;;11.43;4.60;;;16.90;99.90;;;;;;5046898;28;20181;-68
2023/07/01 02:42:30;;;;;;;13.15;3.80;;;16.90;99.90;;;;;;5052108;28;20185;-66
2023/07/01 02:44:55;;;;;;;13.13;3.50;;;17.00;99.90;;;;;;5052413;28;20177;-66
2023/07/01 02:47:21;;;;;;;8.63;3.50;;;16.90;99.90;;;;;;5051692;28;20174;-66
2023/07/01 02:49:46;;;;;;;7.05;2.80;;;17.00;99.90;;;;;;5039312;28;20267;-66
2023/07/01 02:52:12;;;;;;;9.75;2.45;;;16.90;99.90;;;;;;5052275;28;20185;-66
2023/07/01 02:54:39;;;;;;;9.77;2.55;;;16.80;99.90;;;;;;5051193;28;20514;-66
2023/07/01 02:57:06;;;;;;;8.25;2.53;;;16.90;99.90;;;;;;5037259;28;20185;-69
2023/07/01 02:59:32;;;;;;;6.97;2.67;;;16.80;99.90;;;;;;5017673;28;20244;-69
2023/07/01 03:01:57;;;;;;;8.05;2.28;;;16.90;99.90;;;;;;5052170;28;20264;-67
2023/07/01 03:04:23;;;;;;;13.10;2.10;;;16.80;99.90;;;;;;5052025;28;20181;-67
2023/07/01 03:06:49;;;;;;;14.00;1.88;;;;;;;;;;5034245;28;20173;-69
2023/07/01 03:09:14;;;;;;;8.02;2.30;;;16.80;99.90;;;;;;5052106;28;20276;-69
2023/07/01 03:11:40;;;;;;;10.43;2.22;;;16.70;99.90;;;;;;5035333;28;20292;-68
2023/07/01 03:14:06;;;;;;;6.85;1.70;;;16.90;99.90;;;;;;5052108;28;20165;-69
2023/07/01 03:16:31;;;;;;;9.88;1.60;;;16.70;99.90;;;;;;5041364;28;20586;-68
2023/07/01 03:18:58;;;;;;;5.32;1.33;;;16.70;99.90;;;;;;5040422;28;20169;-69
2023/07/01 03:21:25;;;;;;;8.68;2.00;;;16.70;99.90;;;;;;5051961;28;20173;-68
2023/07/01 03:23:51;;;;;;;12.52;1.90;;;16.70;99.90;;;;;;5051937;28;20254;-68
2023/07/01 03:26:16;;;;;;;8.88;1.88;;;16.60;99.90;;;;;;5051613;28;20184;-69
2023/07/01 03:28:43;;;;;;;8.63;2.08;;;16.60;99.90;;;;;;5051644;28;20219;-68
2023/07/01 03:31:09;;;;;;;7.88;2.00;;;16.50;99.90;;;;;;5051242;28;20232;-69
2023/07/01 03:33:35;;;;;;;6.40;1.83;;;;;;;;;;5051047;28;20177;-69
2023/07/01 03:36:01;;;;;;;8.13;1.77;;;16.50;99.90;;;;;;5051504;28;20593;-69
2023/07/01 03:38:26;;;;;;;6.53;1.83;;;16.50;99.90;;;;;;5051605;28;20169;-69
2023/07/01 03:40:52;;;;;;;7.85;1.85;;;16.50;99.90;;;;;;5051578;28;20262;-69
2023/07/01 03:43:18;;;;;;;6.20;1.75;;;16.50;99.90;;;;;;5049126;28;20222;-70
2023/07/01 03:45:43;;;;;;;8.38;1.80;;;16.50;99.90;;;;;;5051513;28;20192;-70
2023/07/01 03:48:09;;;;;;;7.00;1.90;;;16.50;99.90;;;;;;5051421;28;20226;-71
2023/07/01 03:50:35;;;;;;;4.65;1.45;;;16.60;99.90;;;;;;5051236;28;20240;-70
2023/07/01 03:53:00;;;;;;;7.93;2.00;;;16.60;99.90;;;;;;5051465;28;20497;-69
2023/07/01 03:55:26;;;;;;;8.77;2.08;;;16.60;99.90;;;;;;5033469;28;20549;-69
2023/07/01 03:57:52;;;;;;;9.43;2.53;;;16.50;99.90;;;;;;5051231;28;20529;-69
2023/07/01 04:00:18;;;;;;;9.45;2.00;;;16.50;99.90;;;;;;5051237;28;20181;-68
2023/07/01 04:02:48;;;;;;;9.45;2.13;;;16.50;99.90;;;;;;5051094;28;20677;-68
2023/07/01 04:05:15;;;;;;;8.27;2.28;;;16.50;99.90;;;;;;5051015;28;20184;-69
2023/07/01 04:07:42;;;;;;;7.68;1.90;;;16.40;99.90;;;;;;5051322;28;20284;-69
2023/07/01 04:10:09;;;;;;;8.70;1.92;;;16.50;99.90;;;;;;5051180;28;20200;-68
2023/07/01 04:12:35;;;;;;;6.07;1.50;;;16.40;99.90;;;;;;5051109;28;20173;-68
2023/07/01 04:15:02;;;;;;;11.23;1.92;;;16.40;99.90;;;;;;5050276;28;20177;-68
2023/07/01 04:17:29;;;;;;;6.78;1.65;;;16.40;99.90;;;;;;5038643;28;20205;-69
2023/07/01 04:19:56;;;;;;;9.68;1.70;;;16.40;99.90;;;;;;5052601;28;20255;-70
2023/07/01 04:22:22;;;;;;;5.57;1.33;;;16.30;99.90;;;;;;5043125;28;20182;-70
2023/07/01 04:24:48;;;;;;;4.53;1.30;;;16.20;99.90;;;;;;5039044;28;20170;-70
2023/07/01 04:27:14;;;;;;;6.00;1.45;;;16.20;99.90;;;;;;5039048;28;20184;-69
2023/07/01 04:29:39;;;;;;;7.82;1.50;;;16.10;99.90;;;;;;5051605;28;20229;-71
2023/07/01 04:32:05;;;;;;;4.90;1.30;;;16.10;99.90;;;;;;5051642;28;20169;-70
2023/07/01 04:34:31;;;;;;;5.03;1.27;;;16.10;99.90;;;;;;5032896;28;20543;-70
2023/07/01 04:36:56;;;;;;;8.70;1.50;;;16.10;99.90;;;;;;5050873;28;20173;-69
2023/07/01 04:39:23;;;;;;;2.20;1.10;;;16.10;99.90;;;;;;5050742;28;20173;-69
2023/07/01 04:41:49;;;;;;;6.50;1.25;;;16.20;99.90;;;;;;5050760;28;20181;-68
2023/07/01 04:44:15;;;;;;;7.88;1.50;;;16.20;99.90;;;;;;5050501;28;20187;-68
2023/07/01 04:46:40;;;;;;;3.58;1.00;;;16.20;99.90;;;;;;5050907;28;20369;-68
2023/07/01 04:49:08;;;;;;;6.38;1.00;;;16.30;99.90;;;;;;5050646;28;20173;-68
2023/07/01 04:51:37;;;;;;;6.68;0.95;;;16.30;99.90;;;;;;5050672;28;20244;-69
2023/07/01 04:54:04;;;;;;;5.45;1.20;;;16.30;99.90;;;;;;5050696;28;20165;-71
2023/07/01 04:56:30;;;;;;;5.30;1.20;;;16.30;99.90;;;;;;5050517;28;20308;-68
2023/07/01 04:58:56;;;;;;;3.83;1.08;;;16.30;99.90;;;;;;5050673;28;20166;-69
2023/07/01 05:01:21;;;;;;;5.75;1.17;;;16.40;99.90;;;;;;5050576;28;20311;-68
2023/07/01 05:03:47;;;;;;;7.78;0.88;;;16.40;99.90;;;;;;5050480;28;20185;-67
2023/07/01 05:06:13;;;;;;;4.13;1.10;;;16.40;99.90;;;;;;5050880;28;20177;-78
2023/07/01 05:08:38;;;;;;;3.58;1.08;;;16.50;99.90;;;;;;5050764;28;20679;-65
2023/07/01 05:11:04;;;;;;;4.93;1.33;;;16.60;99.90;;;;;;5039462;28;20206;-75
2023/07/01 05:13:30;;;;;;;8.20;1.10;;;16.60;99.90;;;;;;5030736;28;20294;-77
2023/07/01 05:15:55;;;;;;;4.25;0.90;;;16.70;99.90;;;;;;5036089;28;20181;-74
2023/07/01 05:18:21;;;;;;;6.70;1.20;;;16.80;99.90;;;;;;5052634;28;20173;-75
2023/07/01 05:20:46;;;;;;;4.32;1.25;;;16.80;99.90;;;;;;5054001;28;20643;-74
2023/07/01 05:23:12;;;;;;;8.80;1.23;;;16.70;99.90;;;;;;5036490;28;20655;-74
2023/07/01 05:25:38;;;;;;;2.85;1.00;;;16.80;99.90;;;;;;5054263;28;20173;-74
2023/07/01 05:28:04;;;;;;;4.25;0.95;;;16.60;99.90;;;;;;5054127;28;20168;-74
2023/07/01 05:30:29;;;;;;;3.78;0.90;;;16.80;99.90;;;;;;5053986;28;20233;-74
2023/07/01 05:32:55;;;;;;;5.60;0.93;;;16.80;99.90;;;;;;5054097;28;20170;-70
2023/07/01 05:35:20;;;;;;;5.60;1.08;;;16.90;99.90;;;;;;5054010;28;20200;-71
2023/07/01 05:37:46;;;;;;;3.65;1.00;;;16.90;99.90;;;;;;5053980;28;20169;-71
2023/07/01 05:40:12;;;;;;;5.57;1.10;;;17.00;99.90;;;;;;5053737;28;20169;-70
2023/07/01 05:42:38;;;;;;;5.78;1.10;;;17.00;99.90;;;;;;5054440;28;20172;-70
2023/07/01 05:45:05;;;;;;;6.20;0.73;;;17.00;99.90;;;;;;5053918;28;20172;-69
2023/07/01 05:47:31;;;;;;;7.03;1.10;;;17.00;99.90;;;;;;5054222;28;20242;-69
2023/07/01 05:49:56;;;;;;;6.07;0.98;;;17.00;99.90;;;;;;5053576;28;20201;-68
2023/07/01 05:52:22;;;;;;;3.17;0.60;;;16.90;99.90;;;;;;5053240;28;20252;-69
2023/07/01 05:54:48;;;;;;;8.00;1.35;;;17.00;99.90;;;;;;5052704;28;20177;-68
2023/07/01 05:57:14;;;;;;;3.05;0.80;;;16.90;99.90;;;;;;5053238;28;20176;-68
2023/07/01 05:59:40;;;;;;;2.90;0.93;;;16.90;99.90;;;;;;5053264;28;20180;-68
2023/07/01 06:02:06;;;;;;;4.03;0.90;;;16.90;99.90;;;;;;5053500;28;20170;-68
2023/07/01 06:04:32;;;;;;;5.30;0.82;;;16.90;99.90;;;;;;5053544;28;20200;-69
2023/07/01 06:06:58;;;;;;;4.57;0.90;;;16.90;99.90;;;;;;5053613;28;20266;-68
2023/07/01 06:09:23;;;;;;;2.80;0.70;;;16.90;99.90;;;;;;5053415;28;20166;-68
2023/07/01 06:11:49;;;;;;;3.58;1.10;;;;;;;;;;5053281;28;20178;-68
2023/07/01 06:14:15;;;;;;;2.97;0.73;;;;;;;;;;5053195;28;20268;-69
2023/07/01 06:16:41;;;;;;;6.75;0.90;;;17.00;99.90;;;;;;5041486;28;20747;-68
2023/07/01 06:19:06;;;;;;;4.25;0.88;;;17.00;99.90;;;;;;5033139;28;20174;-68
2023/07/01 06:21:32;;;;;;;3.22;0.80;;;;;;;;;;5015421;28;20547;-68
2023/07/01 06:23:58;;;;;;;4.65;0.80;;;17.20;99.90;;;;;;5032900;28;20174;-68
2023/07/01 06:26:24;;;;;;;9.60;1.25;;;17.30;99.90;;;;;;5033015;28;20686;-68
2023/07/01 06:28:49;;;;;;;4.68;0.70;;;17.40;99.90;;;;;;5032871;28;20224;-70
2023/07/01 06:31:15;;;;;;;3.30;0.63;;;17.60;99.90;;;;;;5032799;28;20230;-71
2023/07/01 06:33:40;;;;;;;3.80;0.90;;;17.60;99.90;;;;;;5032563;28;20174;-77
2023/07/01 06:36:07;;;;;;;4.97;0.68;;;17.70;99.90;;;;;;5032988;28;20548;-75
2023/07/01 06:38:32;;;;;;;3.75;0.85;;;17.60;99.90;;;;;;5036599;28;20265;-76
2023/07/01 06:40:58;;;;;;;3.03;0.88;;;17.60;99.90;;;;;;5042714;28;20645;-77
2023/07/01 06:43:24;;;;;;;4.20;0.73;;;17.60;99.90;;;;;;5033457;28;20170;-77
2023/07/01 06:45:49;;;;;;;11.48;1.00;;;17.60;99.90;;;;;;5033214;28;20174;-75
2023/07/01 06:48:15;;;;;;;1.70;0.60;;;17.60;99.90;;;;;;5033111;28;20181;-75
2023/07/01 06:50:41;;;;;;;3.88;0.90;;;17.60;99.90;;;;;;5033298;28;20205;-74
2023/07/01 06:53:06;;;;;;;2.58;0.85;;;17.70;99.90;;;;;;5048318;28;20276;-63
2023/07/01 06:55:33;;;;;;;9.90;0.82;;;17.70;99.90;;;;;;5051640;28;20242;-71
2023/07/01 06:58:02;;;;;;;5.57;1.02;;;18.00;99.90;;;;;;5051725;28;20169;-71
2023/07/01 07:00:29;;;;;;;3.90;0.85;;;17.70;99.90;;;;;;5052044;28;20173;-75
2023/07/01 07:02:54;;;;;;;8.10;1.02;;;17.60;99.90;;;;;;5060466;28;20174;-73
2023/07/01 07:05:20;;;;;;;4.35;1.00;;;17.70;99.90;;;;;;5060039;28;20176;-70
2023/07/01 07:07:46;;;;;;;3.55;1.00;;;17.70;99.90;;;;;;5058801;28;20188;-72
2023/07/01 07:10:11;;;;;;;6.28;1.10;;;17.70;99.90;;;;;;5055295;28;20205;-73
2023/07/01 07:12:37;;;;;;;3.63;1.10;;;17.80;99.90;;;;;;5052523;28;20161;-76
2023/07/01 07:15:03;;;;;;;4.40;0.95;;;17.90;99.90;;;;;;5035373;28;20177;-76
2023/07/01 07:17:28;;;;;;;3.38;1.00;;;18.80;99.90;;;;;;5035556;28;20174;-73
2023/07/01 07:19:54;;;;;;;3.78;1.20;;;18.00;99.90;;;;;;5032209;28;20237;-60
2023/07/01 07:22:20;;;;;;;2.70;1.00;;;18.20;99.90;;;;;;5036885;28;20268;-61
2023/07/01 07:24:45;;;;;;;4.57;1.00;;;18.00;99.90;;;;;;5051390;28;20173;-62
2023/07/01 07:27:11;;;;;;;6.63;1.50;;;;;;;;;;5049644;28;20185;-70
2023/07/01 07:29:38;;;;;;;3.20;1.00;;;18.10;99.90;;;;;;5050528;28;20784;-69
2023/07/01 07:32:04;;;;;;;2.10;1.00;;;18.20;99.90;;;;;;5050601;28;20638;-70
2023/07/01 07:34:30;;;;;;;3.25;0.98;;;18.10;99.90;;;;;;5033338;28;20685;-67
2023/07/01 07:36:57;;;;;;;5.07;1.30;;;18.20;99.90;;;;;;5050935;28;20205;-68
2023/07/01 07:39:23;;;;;;;6.55;1.40;;;18.10;99.90;;;;;;5049997;28;20169;-68
2023/07/01 07:41:49;;;;;;;4.72;1.35;;;18.10;99.90;;;;;;5045241;28;20177;-67
2023/07/01 07:44:15;;;;;;;3.58;1.27;;;18.10;99.90;;;;;;5040115;28;20379;-67
2023/07/01 07:46:42;;;;;;;5.22;1.77;;;18.00;99.90;;;;;;5051334;28;20671;-67
2023/07/01 07:49:08;;;;;;;5.47;1.60;;;18.00;99.90;;;;;;5045700;28;20260;-67
2023/07/01 07:51:34;;;;;;;6.45;1.80;;;17.90;99.90;;;;;;5050237;28;20720;-66
2023/07/01 07:53:59;;;;;;;7.15;1.63;;;17.80;99.90;;;;;;5048671;28;20173;-67
2023/07/01 07:56:25;;;;;;;5.45;1.48;;;17.80;99.90;;;;;;5051291;28;20589;-67
2023/07/01 07:58:50;;;;;;;4.78;1.60;;;17.80;99.90;;;;;;5051346;28;20962;-67
2023/07/01 08:01:16;;;;;;;4.63;1.83;;;17.90;99.90;;;;;;5051397;28;20628;-71
2023/07/01 08:03:42;;;;;;;6.88;1.60;;;18.00;99.90;;;;;;5039671;28;20296;-68
2023/07/01 08:06:08;;;;;;;4.55;1.75;;;18.00;99.90;;;;;;5041380;28;20174;-68
2023/07/01 08:08:35;;;;;;;7.32;1.75;;;17.90;99.90;;;;;;5051648;28;20173;-66
2023/07/01 08:11:01;;;;;;;4.55;1.70;;;17.70;99.90;;;;;;5046801;28;20205;-66
2023/07/01 08:13:27;;;;;;;7.80;2.13;;;17.90;99.90;;;;;;5050931;28;20170;-68
2023/07/01 08:15:53;;;;;;;10.52;2.05;;;17.90;99.90;;;;;;5056771;28;20226;-68
2023/07/01 08:18:18;;;;;;;4.05;1.80;;;17.90;99.90;;;;;;5053614;28;20180;-68
2023/07/01 08:20:45;;;;;;;5.22;1.95;;;18.00;99.90;;;;;;5051400;28;20172;-67
2023/07/01 08:23:11;;;;;;;3.08;1.95;;;18.00;99.90;;;;;;5051463;28;20176;-67
2023/07/01 08:25:41;;;;;;;10.40;2.30;;;18.00;99.90;;;;;;5031616;28;20636;-66
2023/07/01 08:28:07;;;;;;;7.30;2.10;;;18.00;99.90;;;;;;5046490;28;20212;-66
2023/07/01 08:30:32;;;;;;;8.23;2.30;;;18.00;99.90;;;;;;5050587;28;20294;-67
2023/07/01 08:32:58;;;;;;;4.40;2.38;;;18.10;99.90;;;;;;5051039;28;20636;-65
2023/07/01 08:35:23;;;;;;;5.88;2.08;;;18.30;99.90;;;;;;5050819;28;20169;-67
2023/07/01 08:37:49;;;;;;;9.65;1.80;;;18.40;99.90;;;;;;5050210;28;20532;-67
2023/07/01 08:40:15;;;;;;;5.63;2.40;;;18.30;99.90;;;;;;5032306;28;20234;-67
2023/07/01 08:42:48;;;;;;;3.85;1.95;;;18.30;99.90;;;;;;5050806;28;20270;-67
2023/07/01 08:45:14;;;;;;;7.88;2.38;;;18.00;99.90;;;;;;5050752;28;20173;-67
2023/07/01 08:47:43;;;;;;;4.97;1.90;;;17.70;99.90;;;;;;5050656;28;20200;-65
2023/07/01 08:50:09;;;;;;;4.05;1.92;;;17.50;99.90;;;;;;5050671;28;20252;-64
2023/07/01 08:52:47;;;;;;;4.25;1.73;;;18.40;99.90;;;;;;5053312;28;20170;-73
2023/07/01 08:55:13;;;;;;;4.40;2.05;;;17.80;99.90;;;;;;5055311;28;20163;-64
2023/07/01 08:57:39;;;;;;;3.63;1.98;;;18.20;99.90;;;;;;5054528;28;20173;-63
2023/07/01 09:00:07;;;;;;;6.68;2.25;;;18.30;99.90;;;;;;5054403;28;20172;-62
2023/07/01 09:02:33;;;;;;;6.45;2.20;;;18.60;99.90;;;;;;5054426;28;20512;-72
2023/07/01 09:04:59;;;;;;;6.18;2.38;;;18.60;99.90;;;;;;5054062;28;20181;-64
2023/07/01 09:07:25;;;;;;;3.90;2.42;;;18.50;99.90;;;;;;5053621;28;20231;-64
2023/07/01 09:09:51;;;;;;;9.63;2.45;;;18.50;99.90;;;;;;5054014;28;20633;-63
2023/07/01 09:12:16;;;;;;;7.03;2.67;;;18.60;99.90;;;;;;5053704;28;20279;-63
2023/07/01 09:15:04;;;;;;;3.83;2.10;;;18.60;99.90;;;;;;5052698;28;20173;-63
2023/07/01 09:17:37;;;;;;;10.20;3.10;;;18.80;99.90;;;;;;5053974;28;20197;-63
2023/07/01 09:20:06;;;;;;;9.70;2.85;;;19.30;99.90;;;;;;5054172;28;20166;-63
2023/07/01 09:22:33;;;;;;;7.22;3.30;;;19.10;99.90;;;;;;5053460;28;20188;-63
2023/07/01 09:24:59;;;;;;;7.43;3.85;;;19.10;99.90;;;;;;5053228;28;20173;-64
2023/07/01 09:27:38;;;;;;;10.45;3.53;;;19.00;99.90;;;;;;5048477;28;20222;-65
2023/07/01 09:30:23;;;;;;;10.98;3.58;;;19.00;99.90;;;;;;5053745;28;20225;-64
2023/07/01 09:32:48;;;;;;;10.05;3.90;;;19.10;99.90;;;;;;5053880;28;20169;-65
2023/07/01 09:35:14;;;;;;;10.38;3.60;;;19.10;99.90;;;;;;5053313;28;20170;-65
2023/07/01 09:37:40;;;;;;;8.52;3.83;;;19.00;99.90;;;;;;5053497;28;20669;-64
2023/07/01 09:40:24;;;;;;;11.55;4.10;;;19.20;99.90;;;;;;5051476;28;20229;-65
2023/07/01 09:42:51;;;;;;;9.30;3.95;;;19.20;99.90;;;;;;5052210;28;20173;-63
2023/07/01 09:45:17;;;;;;;10.88;3.97;;;19.20;99.90;;;;;;5049236;28;20195;-64
2023/07/01 09:47:42;;;;;;;10.32;4.70;;;18.90;41.20;;;;;;5053318;28;20621;-64
2023/07/01 09:50:19;;;;;;;9.43;4.25;;;18.90;99.90;;;;;;5052894;28;20517;-67
2023/07/01 09:52:45;;;;;;;10.68;4.47;;;18.60;15.10;;;;;;5053936;28;20570;-65
2023/07/01 09:55:11;;;;;;;13.27;5.65;;;18.40;99.90;;;;;;5053229;28;20319;-64
2023/07/01 09:57:37;;;;;;;11.73;4.80;;;;;;;;;;5053820;28;20636;-66
2023/07/01 10:00:03;;;;;;;12.25;4.60;;;18.50;99.90;;;;;;5053522;28;20177;-65
2023/07/01 10:02:29;;;;;;;10.77;4.45;;;18.50;20.40;;;;;;5053941;28;20539;-63
2023/07/01 10:04:55;;;;;;;9.57;4.55;;;18.50;1.00;;;;;;5052319;28;20181;-63
2023/07/01 10:07:20;;;;;;;9.38;4.10;;;18.70;1.00;;;;;;5052248;28;20204;-64
2023/07/01 10:09:47;;;;;;;10.88;4.32;;;18.90;1.00;;;;;;5052754;28;20209;-64
2023/07/01 10:12:17;;;;;;;10.68;4.40;;;18.90;99.90;;;;;;5053343;28;20177;-67
2023/07/01 10:14:47;;;;;;;9.27;4.55;;;19.00;99.90;;;;;;5052882;28;20181;-63
2023/07/01 10:17:15;;;;;;;11.52;4.03;;;18.90;1.00;;;;;;5052318;28;20636;-63
2023/07/01 10:19:46;;;;;;;8.93;4.50;;;18.80;1.00;;;;;;5052899;28;20237;-64
2023/07/01 10:22:30;;;;;;;10.48;4.65;;;19.00;99.90;;;;;;5052673;28;20595;-63
2023/07/01 10:25:01;;;;;;;15.07;4.90;;;19.20;93.00;;;;;;5040418;28;20189;-65
2023/07/01 10:27:42;;;;;;;10.60;4.68;;;19.30;1.00;;;;;;5050851;28;20185;-64
2023/07/01 10:30:12;;;;;;;13.00;5.55;;;19.60;1.00;;;;;;5044649;28;20226;-63
2023/07/01 10:32:38;;;;;;;11.60;5.47;;;19.80;99.90;;;;;;5039330;28;20177;-64
2023/07/01 10:35:04;;;;;;;16.08;5.93;;;19.80;99.90;;;;;;5052684;28;20283;-64
2023/07/01 10:37:32;;;;;;;12.10;5.63;;;20.00;1.00;;;;;;5052229;28;20664;-64
2023/07/01 10:39:59;;;;;;;15.90;6.68;;;20.30;99.30;;;;;;5052449;28;20208;-66
2023/07/01 10:42:33;;;;;;;15.20;6.70;;;20.10;1.00;;;;;;5043653;28;20687;-65
2023/07/01 10:45:13;;;;;;;12.77;7.15;;;20.20;99.90;;;;;;5042820;28;20307;-64
2023/07/01 10:47:43;;;;;;;17.33;6.82;;;20.10;1.00;;;;;;5052131;28;20177;-65
2023/07/01 10:50:13;;;;;;;19.02;7.70;;;19.70;1.00;;;;;;5052755;28;20189;-65
2023/07/01 10:55:49;;;;;;;23.00;8.35;;;19.70;1.00;;;;;;5052600;28;20244;-64
2023/07/01 10:58:26;;;;;;;19.77;7.93;;;19.80;1.00;;;;;;5052293;28;20181;-65
2023/07/01 11:00:56;;;;;;;19.17;6.60;;;19.60;1.00;;;;;;5051480;28;20177;-64
2023/07/01 11:03:39;;;;;;;21.95;8.70;;;19.80;99.90;;;;;;5050593;28;20169;-64
2023/07/01 11:06:06;;;;;;;17.27;8.50;;;19.80;1.00;;;;;;5051187;28;20251;-64
2023/07/01 11:08:43;;;;;;;14.48;8.68;;;20.20;99.90;;;;;;5051753;28;20174;-65
2023/07/01 11:11:09;;;;;;;25.52;9.27;;;20.80;1.00;;;;;;5052145;28;20208;-65
2023/07/01 11:13:35;;;;;;;20.05;9.15;;;21.70;99.90;;;;;;5051266;28;20558;-64
2023/07/01 11:16:01;;;;;;;16.65;8.85;;;22.50;99.90;;;;;;5050714;28;20216;-64
2023/07/01 11:18:47;;;;;;;17.58;8.65;;;22.60;1.00;;;;;;5051700;28;20177;-64
2023/07/01 11:21:18;;;;;;;16.20;8.35;;;22.90;1.00;;;;;;5049233;28;20674;-65
2023/07/01 11:23:55;;;;;;;20.05;8.57;;;22.50;1.00;;;;;;5050548;28;20631;-65
2023/07/01 11:26:23;;;;;;;19.00;9.32;;;22.00;70.60;;;;;;5051094;28;20172;-65
2023/07/01 11:28:49;;;;;;;17.25;8.70;;;21.60;1.00;;;;;;5050890;28;20169;-64
2023/07/01 11:31:17;;;;;;;21.08;11.20;;;21.70;1.00;;;;;;5044690;28;20312;-63
2023/07/01 11:33:44;;;;;;;24.45;12.32;;;21.70;1.00;;;;;;5051423;28;20177;-65
2023/07/01 11:36:18;;;;;;;25.70;12.00;;;23.20;1.00;;;;;;5108960;27;20552;-65
2023/07/01 11:38:47;;;;;;;28.52;12.77;;;23.20;1.00;;;;;;5107629;28;20183;-66
2023/07/01 11:41:14;;;;;;;27.00;13.10;;;23.70;1.00;;;;;;5109133;28;20171;-65
2023/07/01 11:43:40;;;;;;;28.88;12.80;;;;;;;;;;5108708;28;20171;-65
2023/07/01 11:46:05;;;;;;;29.75;13.65;;;22.80;99.90;;;;;;5108613;28;20265;-65
2023/07/01 11:48:32;;;;;;;29.95;13.82;;;21.90;99.90;;;;;;5108891;28;20179;-65
2023/07/01 11:50:58;;;;;;;25.13;12.57;;;21.50;3.90;;;;;;5107835;28;20635;-65
2023/07/01 11:53:27;;;;;;;26.98;12.43;;;21.40;1.00;;;;;;5106673;28;20625;-65
2023/07/01 11:55:56;;;;;;;24.50;12.73;;;21.30;99.90;;;;;;5087969;28;20259;-63
2023/07/01 11:58:39;;;;;;;24.25;12.52;;;21.10;99.90;;;;;;5088260;28;20204;-64
2023/07/01 12:01:24;;;;;;;22.50;12.68;;;22.20;99.90;;;;;;5088093;28;20197;-64
2023/07/01 12:03:53;;;;;;;25.80;13.15;;;22.70;1.00;;;;;;5087497;28;20535;-64
2023/07/01 12:06:23;;;;;;;25.63;12.73;;;22.60;62.30;;;;;;5088332;28;20184;-65
2023/07/01 12:09:03;;;;;;;22.13;11.32;;;22.30;1.00;;;;;;5088100;28;20175;-66
2023/07/01 12:11:29;;;;;;;26.52;12.65;;;21.90;1.00;;;;;;5088007;28;20608;-65
2023/07/01 12:13:54;;;;;;;27.10;13.05;;;21.70;1.00;;;;;;5087695;28;20251;-65
2023/07/01 12:16:20;;;;;;;22.83;12.27;;;22.10;1.00;;;;;;5087872;28;20527;-66
2023/07/01 12:18:46;;;;;;;20.63;11.52;;;22.10;1.00;;;;;;5087729;28;20233;-65
2023/07/01 12:21:12;;;;;;;28.27;12.52;;;22.80;16.50;;;;;;5087823;28;20564;-65
2023/07/01 12:23:42;;;;;;;26.05;13.40;;;22.70;53.90;;;;;;5087671;28;20160;-65
2023/07/01 12:26:11;;;;;;;26.80;13.40;;;22.70;1.00;;;;;;5087320;28;20242;-67
2023/07/01 12:28:40;;;;;;;25.83;12.48;;;22.60;99.90;;;;;;5087463;28;20183;-65
2023/07/01 12:31:07;;;;;;;21.27;10.98;;;24.50;68.60;;;;;;5087548;28;20168;-64
2023/07/01 12:33:34;;;;;;;25.25;11.85;;;24.70;99.90;;;;;;5086640;28;20526;-65
2023/07/01 12:36:00;;;;;;;23.50;11.10;;;24.60;1.00;;;;;;5086960;28;20219;-64
2023/07/01 12:38:27;;;;;;;21.15;11.80;;;24.80;99.90;;;;;;5086834;28;20179;-64
2023/07/01 12:40:54;;;;;;;23.58;11.77;;;24.80;99.90;;;;;;5086884;28;20233;-64
2023/07/01 12:43:21;;;;;;;26.63;11.57;;;24.00;99.90;;;;;;5086585;28;20212;-65
2023/07/01 12:45:48;;;;;;;24.95;11.82;;;23.20;1.00;;;;;;5083752;28;20211;-66
2023/07/01 12:48:14;;;;;;;25.67;12.30;;;23.10;1.00;;;;;;5072789;28;20218;-65
2023/07/01 12:50:40;;;;;;;21.75;12.73;;;;;;;;;;5092400;28;20188;-65